Time;durP1;ratioP1;P1;durP2;ratioP2;P2;SDS_P1;SDS_P2;PMS_P1;PMS_P2;Temp;Humidity;BMP_temperature;BMP_pressure;BME280_temperature;BME280_humidity;BME280_pressure;Samples;Min_cycle;Max_cycle;Signal;HPM_P1;HPM_P2
2022/11/27 00:01:25;;;;;;;5.20;4.70;;;9.60;99.90;;;;;;5052194;28;20766;-71
2022/11/27 00:03:52;;;;;;;5.73;4.30;;;9.70;99.90;;;;;;5034655;28;20518;-68
2022/11/27 00:06:21;;;;;;;7.43;4.77;;;9.70;99.90;;;;;;5052296;28;20460;-68
2022/11/27 00:08:47;;;;;;;5.00;4.50;;;9.70;99.90;;;;;;5052011;28;20501;-68
2022/11/27 00:11:17;;;;;;;4.93;4.33;;;9.70;99.90;;;;;;5052253;28;20404;-68
2022/11/27 00:13:43;;;;;;;5.70;5.10;;;9.60;99.90;;;;;;5051707;28;20793;-68
2022/11/27 00:16:09;;;;;;;6.03;4.90;;;9.60;99.90;;;;;;5052621;28;20413;-68
2022/11/27 00:18:35;;;;;;;5.90;4.97;;;9.40;99.90;;;;;;5051250;28;20408;-68
2022/11/27 00:21:07;;;;;;;7.80;4.60;;;9.10;99.90;;;;;;5051921;28;20412;-68
2022/11/27 00:23:34;;;;;;;8.17;5.23;;;9.10;99.90;;;;;;5051644;28;20410;-68
2022/11/27 00:26:00;;;;;;;4.80;4.40;;;9.20;99.90;;;;;;5052163;28;20954;-68
2022/11/27 00:28:26;;;;;;;6.57;4.60;;;9.30;99.90;;;;;;5033662;28;20770;-68
2022/11/27 00:30:51;;;;;;;8.17;4.90;;;9.30;99.90;;;;;;5052166;28;20417;-68
2022/11/27 00:33:17;;;;;;;5.13;4.63;;;9.20;99.90;;;;;;5052054;28;20184;-68
2022/11/27 00:35:43;;;;;;;4.60;4.20;;;9.30;99.90;;;;;;5051787;28;20418;-68
2022/11/27 00:38:09;;;;;;;5.00;4.60;;;9.30;99.90;;;;;;5052454;28;20187;-68
2022/11/27 00:40:34;;;;;;;5.30;4.63;;;9.30;99.90;;;;;;5051520;28;20401;-68
2022/11/27 00:43:00;;;;;;;6.87;4.60;;;9.30;99.90;;;;;;5052133;28;20639;-68
2022/11/27 00:45:27;;;;;;;5.17;4.63;;;9.20;99.90;;;;;;5051241;28;20219;-69
2022/11/27 00:47:53;;;;;;;5.80;4.33;;;9.30;99.90;;;;;;5051547;28;20469;-68
2022/11/27 00:50:19;;;;;;;6.77;5.37;;;9.30;99.90;;;;;;5051915;28;20944;-68
2022/11/27 00:52:44;;;;;;;5.20;4.73;;;9.30;99.90;;;;;;5051010;28;20400;-69
2022/11/27 00:55:11;;;;;;;5.37;4.87;;;9.30;99.90;;;;;;5051928;28;20463;-68
2022/11/27 00:57:37;;;;;;;5.00;4.30;;;9.40;99.90;;;;;;5051516;28;20603;-68
2022/11/27 01:00:04;;;;;;;5.90;4.97;;;9.40;99.90;;;;;;5034311;28;20434;-68
2022/11/27 01:02:30;;;;;;;6.63;6.03;;;9.30;99.90;;;;;;5051180;28;20178;-69
2022/11/27 01:04:58;;;;;;;7.53;5.07;;;9.30;99.90;;;;;;5033870;28;20428;-68
2022/11/27 01:07:25;;;;;;;5.43;4.87;;;9.30;99.90;;;;;;5051725;28;20234;-68
2022/11/27 01:09:51;;;;;;;5.63;5.00;;;9.30;99.90;;;;;;5055416;28;20463;-68
2022/11/27 01:12:17;;;;;;;4.97;4.47;;;9.30;99.90;;;;;;5037387;28;20424;-68
2022/11/27 01:14:42;;;;;;;5.53;5.03;;;9.30;99.90;;;;;;5054945;28;20254;-68
2022/11/27 01:17:08;;;;;;;5.60;5.03;;;9.30;99.90;;;;;;5055319;28;20607;-68
2022/11/27 01:19:34;;;;;;;5.80;4.90;;;9.30;99.90;;;;;;5054662;28;20182;-68
2022/11/27 01:21:59;;;;;;;4.30;4.00;;;9.30;99.90;;;;;;5055100;28;20166;-68
2022/11/27 01:24:25;;;;;;;5.67;5.00;;;9.30;99.90;;;;;;5055084;28;20232;-68
2022/11/27 01:26:51;;;;;;;5.47;5.07;;;9.20;99.90;;;;;;5054362;28;20248;-68
2022/11/27 01:29:16;;;;;;;5.00;4.57;;;9.20;99.90;;;;;;5037605;28;20166;-68
2022/11/27 01:31:42;;;;;;;5.60;5.20;;;9.30;99.90;;;;;;5036616;28;20174;-68
2022/11/27 01:34:14;;;;;;;5.43;4.90;;;9.20;99.90;;;;;;5054907;28;20174;-68
2022/11/27 01:36:39;;;;;;;6.33;5.20;;;9.30;99.90;;;;;;5054347;28;20166;-68
2022/11/27 01:39:06;;;;;;;4.93;4.60;;;9.20;99.90;;;;;;5054811;28;20411;-68
2022/11/27 01:41:34;;;;;;;9.10;5.30;;;9.20;99.90;;;;;;5054195;28;20181;-69
2022/11/27 01:44:20;;;;;;;6.20;5.20;;;9.20;99.90;;;;;;5054728;28;20462;-68
2022/11/27 01:46:49;;;;;;;6.83;5.60;;;9.20;99.90;;;;;;5054118;28;20471;-69
2022/11/27 01:49:29;;;;;;;5.33;4.93;;;9.20;99.90;;;;;;5054541;28;20419;-68
2022/11/27 01:52:01;;;;;;;5.73;5.13;;;9.10;99.90;;;;;;5054704;28;20488;-68
2022/11/27 01:54:55;;;;;;;7.67;5.63;;;8.90;99.90;;;;;;5054524;28;20392;-68
2022/11/27 01:57:27;;;;;;;5.00;4.70;;;8.90;99.90;;;;;;5026977;28;20782;-68
2022/11/27 01:59:56;;;;;;;5.23;4.73;;;9.00;99.90;;;;;;5053624;28;20849;-68
2022/11/27 02:02:22;;;;;;;5.47;4.97;;;9.00;99.90;;;;;;5054399;28;20400;-68
2022/11/27 02:04:48;;;;;;;5.70;5.10;;;8.90;99.90;;;;;;5053752;28;20405;-68
2022/11/27 02:07:14;;;;;;;5.20;4.67;;;8.90;99.90;;;;;;5053852;28;20815;-68
2022/11/27 02:09:40;;;;;;;6.80;5.40;;;9.00;99.90;;;;;;5053688;28;20177;-68
2022/11/27 02:12:38;;;;;;;5.50;5.10;;;9.00;99.90;;;;;;5053887;28;20416;-68
2022/11/27 02:15:32;;;;;;;9.97;5.33;;;9.00;99.90;;;;;;4999049;28;20429;-68
2022/11/27 02:18:01;;;;;;;5.77;5.27;;;8.80;99.90;;;;;;5053899;28;20507;-68
2022/11/27 02:20:32;;;;;;;5.53;4.90;;;8.80;99.90;;;;;;5052939;28;20423;-68
2022/11/27 02:23:18;;;;;;;6.73;5.10;;;8.80;99.90;;;;;;5054239;28;20534;-68
2022/11/27 02:26:19;;;;;;;6.10;5.50;;;8.90;99.90;;;;;;5053334;28;20796;-69
2022/11/27 02:29:09;;;;;;;8.53;5.90;;;8.90;99.90;;;;;;5053418;28;20760;-68
2022/11/27 02:32:00;;;;;;;6.33;5.63;;;9.00;99.90;;;;;;5053263;28;20892;-69
2022/11/27 02:35:04;;;;;;;5.37;4.90;;;9.00;99.90;;;;;;5053824;28;20476;-68
2022/11/27 02:37:52;;;;;;;6.00;5.33;;;9.00;99.90;;;;;;5053692;28;20896;-68
2022/11/27 02:40:37;;;;;;;5.37;4.90;;;9.00;99.90;;;;;;5053718;28;20403;-68
2022/11/27 02:43:12;;;;;;;6.30;5.70;;;9.00;99.90;;;;;;5053910;28;20500;-68
2022/11/27 02:45:44;;;;;;;7.60;5.17;;;9.00;99.90;;;;;;5052965;28;20486;-69
2022/11/27 02:48:13;;;;;;;6.13;5.40;;;9.00;99.90;;;;;;5053766;28;20759;-68
2022/11/27 02:50:42;;;;;;;7.10;5.97;;;9.00;99.90;;;;;;5052867;28;20408;-69
2022/11/27 02:53:12;;;;;;;7.10;5.57;;;8.90;99.90;;;;;;5053381;28;20499;-68
2022/11/27 02:55:41;;;;;;;6.60;5.30;;;8.90;99.90;;;;;;5052761;28;20911;-69
2022/11/27 02:58:10;;;;;;;9.60;6.70;;;8.70;99.90;;;;;;5053063;28;20754;-68
2022/11/27 03:00:38;;;;;;;7.73;5.60;;;8.70;99.90;;;;;;5052696;28;20435;-69
2022/11/27 03:03:07;;;;;;;6.37;5.77;;;8.60;99.90;;;;;;5053167;28;20416;-68
2022/11/27 03:05:38;;;;;;;7.60;5.47;;;8.50;99.90;;;;;;5052672;28;20458;-71
2022/11/27 03:08:17;;;;;;;6.97;5.77;;;8.40;99.90;;;;;;5053216;28;20456;-68
2022/11/27 03:11:06;;;;;;;6.03;5.10;;;8.50;99.90;;;;;;5052615;28;20401;-68
2022/11/27 03:13:41;;;;;;;5.77;5.10;;;8.50;99.90;;;;;;5053097;28;20400;-68
2022/11/27 03:16:25;;;;;;;9.20;5.57;;;8.50;99.90;;;;;;5052746;28;20410;-68
2022/11/27 03:19:11;;;;;;;6.53;5.90;;;8.10;99.90;;;;;;5052482;28;20416;-67
2022/11/27 03:21:44;;;;;;;10.73;6.70;;;8.10;99.90;;;;;;5034526;28;20907;-69
2022/11/27 03:24:10;;;;;;;6.80;5.67;;;8.20;99.90;;;;;;5052956;28;20442;-68
2022/11/27 03:26:38;;;;;;;7.77;5.87;;;8.20;99.90;;;;;;5052234;28;20460;-68
2022/11/27 03:29:09;;;;;;;5.37;4.80;;;8.30;99.90;;;;;;5035060;28;20416;-69
2022/11/27 03:31:36;;;;;;;6.13;5.20;;;8.20;99.90;;;;;;5051992;28;20475;-71
2022/11/27 03:34:03;;;;;;;8.17;6.07;;;8.20;99.90;;;;;;5034930;28;20408;-68
2022/11/27 03:36:29;;;;;;;8.87;6.00;;;8.10;99.90;;;;;;5052720;28;20473;-68
2022/11/27 03:38:55;;;;;;;7.97;5.90;;;8.00;99.90;;;;;;5051803;28;20943;-68
2022/11/27 03:41:52;;;;;;;6.60;5.40;;;8.00;99.90;;;;;;5052654;28;20253;-68
2022/11/27 03:44:30;;;;;;;8.67;6.27;;;8.00;99.90;;;;;;5052758;28;20261;-68
2022/11/27 03:47:28;;;;;;;8.17;6.00;;;8.00;99.90;;;;;;5051699;28;20479;-68
2022/11/27 03:50:19;;;;;;;8.10;5.77;;;7.90;99.90;;;;;;5051990;28;20411;-68
2022/11/27 03:53:03;;;;;;;9.30;5.77;;;8.00;99.90;;;;;;5051745;28;20411;-68
2022/11/27 03:56:07;;;;;;;6.83;5.47;;;7.90;99.90;;;;;;5052577;28;20741;-68
2022/11/27 03:58:54;;;;;;;8.03;5.70;;;8.00;99.90;;;;;;5052513;28;20408;-68
2022/11/27 04:01:24;;;;;;;9.40;5.93;;;8.10;99.90;;;;;;5052533;28;20400;-68
2022/11/27 04:03:50;;;;;;;7.20;5.80;;;8.20;99.90;;;;;;5052094;28;20363;-68
2022/11/27 04:06:16;;;;;;;6.13;5.53;;;8.20;99.90;;;;;;5052491;28;20458;-68
2022/11/27 04:08:42;;;;;;;9.80;6.10;;;8.30;99.90;;;;;;5051883;28;20217;-68
2022/11/27 04:11:08;;;;;;;6.07;5.43;;;8.30;99.90;;;;;;5052343;28;20428;-68
2022/11/27 04:13:33;;;;;;;9.30;6.40;;;8.40;99.90;;;;;;5052326;28;20424;-68
2022/11/27 04:16:00;;;;;;;9.10;6.27;;;8.50;99.90;;;;;;5051729;28;20182;-68
2022/11/27 04:18:26;;;;;;;6.70;5.67;;;8.40;99.90;;;;;;5052177;28;20444;-68
2022/11/27 04:20:52;;;;;;;6.70;5.70;;;8.10;99.90;;;;;;5051668;28;20482;-68
2022/11/27 04:23:18;;;;;;;6.77;5.90;;;8.30;99.90;;;;;;5051997;28;20176;-68
2022/11/27 04:25:43;;;;;;;9.30;6.40;;;8.30;99.90;;;;;;5051635;28;20296;-68
2022/11/27 04:28:09;;;;;;;6.60;5.77;;;8.30;99.90;;;;;;5051903;28;20180;-68
2022/11/27 04:30:35;;;;;;;7.60;6.80;;;8.20;99.90;;;;;;5052068;28;20173;-68
2022/11/27 04:33:01;;;;;;;8.87;5.70;;;8.30;99.90;;;;;;5033817;28;20205;-68
2022/11/27 04:35:26;;;;;;;7.37;5.50;;;8.40;99.90;;;;;;5052064;28;20193;-68
2022/11/27 04:37:52;;;;;;;7.40;6.00;;;8.50;99.90;;;;;;5033704;28;20188;-68
2022/11/27 04:40:18;;;;;;;6.97;6.27;;;8.40;99.90;;;;;;5052031;28;20185;-68
2022/11/27 04:42:44;;;;;;;8.40;6.60;;;8.40;99.90;;;;;;5051936;28;20458;-68
2022/11/27 04:45:10;;;;;;;9.47;5.93;;;8.40;99.90;;;;;;5055925;28;20499;-68
2022/11/27 04:47:35;;;;;;;7.40;5.90;;;8.30;99.90;;;;;;5056017;28;20170;-68
2022/11/27 04:50:01;;;;;;;9.80;6.30;;;8.30;99.90;;;;;;5055247;28;20185;-68
2022/11/27 04:52:27;;;;;;;8.00;6.73;;;8.40;99.90;;;;;;5038299;28;20174;-68
2022/11/27 04:54:52;;;;;;;7.90;6.80;;;8.50;99.90;;;;;;5055090;28;20177;-68
2022/11/27 04:57:24;;;;;;;7.23;5.70;;;8.50;99.90;;;;;;5055728;28;20173;-68
2022/11/27 04:59:50;;;;;;;6.33;5.70;;;8.60;99.90;;;;;;5054952;28;20571;-68
2022/11/27 05:02:15;;;;;;;7.57;6.27;;;8.70;99.90;;;;;;5055917;28;20868;-68
2022/11/27 05:04:41;;;;;;;6.63;5.80;;;8.70;99.90;;;;;;5055054;28;20186;-69
2022/11/27 05:07:07;;;;;;;6.07;5.43;;;8.70;99.90;;;;;;5055247;28;20233;-68
2022/11/27 05:09:33;;;;;;;9.67;5.33;;;8.80;99.90;;;;;;5055609;28;20186;-68
2022/11/27 05:11:58;;;;;;;8.10;5.30;;;8.90;99.90;;;;;;5054821;28;20174;-68
2022/11/27 05:14:28;;;;;;;9.50;6.10;;;8.90;99.90;;;;;;5055704;28;20186;-68
2022/11/27 05:16:56;;;;;;;8.00;5.90;;;8.80;99.90;;;;;;5054518;28;20538;-69
2022/11/27 05:19:25;;;;;;;7.10;5.83;;;8.70;99.90;;;;;;5055193;28;20420;-68
2022/11/27 05:21:51;;;;;;;8.73;6.43;;;8.60;99.90;;;;;;5054537;28;20408;-68
2022/11/27 05:24:19;;;;;;;7.03;5.67;;;8.60;99.90;;;;;;5055083;28;20419;-68
2022/11/27 05:26:45;;;;;;;7.50;5.87;;;8.60;99.90;;;;;;5054509;28;20494;-69
2022/11/27 05:29:12;;;;;;;10.57;6.80;;;8.60;99.90;;;;;;5055140;28;20439;-68
2022/11/27 05:31:38;;;;;;;10.73;6.20;;;8.50;99.90;;;;;;5054957;28;20412;-68
2022/11/27 05:34:04;;;;;;;6.93;5.23;;;8.50;99.90;;;;;;5054002;28;20896;-68
2022/11/27 05:36:31;;;;;;;6.77;5.73;;;8.60;99.90;;;;;;5055015;28;20416;-68
2022/11/27 05:38:58;;;;;;;7.13;5.80;;;8.60;99.90;;;;;;5054276;28;20440;-69
2022/11/27 05:41:24;;;;;;;9.83;6.43;;;8.70;99.90;;;;;;5055049;28;20800;-68
2022/11/27 05:43:49;;;;;;;9.90;5.80;;;8.80;99.90;;;;;;5036173;28;20416;-68
2022/11/27 05:46:21;;;;;;;7.67;6.67;;;8.90;99.90;;;;;;5036920;28;20665;-68
2022/11/27 05:48:47;;;;;;;9.03;6.00;;;8.90;99.90;;;;;;5036276;28;20205;-68
2022/11/27 05:51:13;;;;;;;9.30;6.50;;;8.90;99.90;;;;;;5054627;28;20440;-68
2022/11/27 05:53:39;;;;;;;7.47;5.90;;;8.80;99.90;;;;;;5054283;28;20421;-68
2022/11/27 05:56:08;;;;;;;8.07;6.87;;;8.70;99.90;;;;;;5053894;28;20405;-68
2022/11/27 05:58:34;;;;;;;10.37;6.60;;;8.50;99.90;;;;;;5054458;28;20570;-68
2022/11/27 06:01:00;;;;;;;7.93;6.20;;;8.50;99.90;;;;;;5054138;28;20508;-68
2022/11/27 06:03:26;;;;;;;8.67;6.80;;;8.70;99.90;;;;;;5054484;28;20405;-68
2022/11/27 06:05:52;;;;;;;12.03;7.27;;;8.80;99.90;;;;;;5053771;28;20452;-68
2022/11/27 06:08:24;;;;;;;9.70;7.10;;;8.70;99.90;;;;;;5054381;28;20331;-68
2022/11/27 06:10:52;;;;;;;11.27;6.70;;;8.60;99.90;;;;;;5053757;28;20451;-68
2022/11/27 06:13:18;;;;;;;9.30;6.27;;;8.60;99.90;;;;;;5054311;28;20228;-68
2022/11/27 06:15:43;;;;;;;7.90;6.67;;;8.70;99.90;;;;;;5054466;28;20762;-68
2022/11/27 06:18:11;;;;;;;8.43;6.90;;;8.70;99.90;;;;;;5053521;28;20188;-68
2022/11/27 06:20:37;;;;;;;8.33;6.57;;;8.40;99.90;;;;;;5054040;28;20327;-68
2022/11/27 06:23:02;;;;;;;8.83;6.00;;;8.50;99.90;;;;;;5053469;28;20927;-68
2022/11/27 06:25:28;;;;;;;8.70;7.57;;;8.70;99.90;;;;;;5054360;28;20448;-68
2022/11/27 06:27:54;;;;;;;10.40;7.40;;;8.40;99.90;;;;;;5053277;28;20173;-68
2022/11/27 06:30:20;;;;;;;9.33;6.53;;;8.40;99.90;;;;;;5053978;28;20178;-68
2022/11/27 06:32:45;;;;;;;12.77;7.80;;;8.30;99.90;;;;;;5053465;28;20178;-70
2022/11/27 06:35:11;;;;;;;8.73;6.47;;;8.40;99.90;;;;;;5053656;28;20585;-68
2022/11/27 06:37:37;;;;;;;9.27;6.97;;;8.40;99.90;;;;;;5053776;28;20177;-68
2022/11/27 06:40:03;;;;;;;13.30;8.10;;;8.50;99.90;;;;;;5035686;28;20201;-68
2022/11/27 06:42:29;;;;;;;10.20;7.43;;;8.70;99.90;;;;;;5053670;28;20174;-68
2022/11/27 06:44:55;;;;;;;8.20;6.23;;;8.70;99.90;;;;;;5053128;28;20432;-68
2022/11/27 06:47:21;;;;;;;10.97;7.00;;;8.80;99.90;;;;;;5053149;28;20824;-68
2022/11/27 06:49:47;;;;;;;7.60;6.73;;;8.80;99.90;;;;;;5052657;28;20498;-69
2022/11/27 06:52:12;;;;;;;16.40;7.27;;;8.90;99.90;;;;;;5053256;28;20508;-68
2022/11/27 06:54:38;;;;;;;7.83;7.00;;;8.90;99.90;;;;;;5053867;28;20256;-68
2022/11/27 06:57:04;;;;;;;8.60;7.63;;;9.00;99.90;;;;;;5052839;28;20595;-68
2022/11/27 06:59:30;;;;;;;7.87;7.07;;;9.10;99.90;;;;;;5053343;28;20199;-68
2022/11/27 07:01:55;;;;;;;8.20;7.10;;;8.90;99.90;;;;;;5052635;28;20188;-68
2022/11/27 07:04:21;;;;;;;7.77;6.97;;;8.80;99.90;;;;;;5035096;28;20444;-68
2022/11/27 07:06:47;;;;;;;9.20;6.97;;;8.90;99.90;;;;;;5034380;28;20209;-68
2022/11/27 07:09:13;;;;;;;10.63;7.77;;;8.70;99.90;;;;;;5053396;28;20173;-68
2022/11/27 07:11:39;;;;;;;6.70;6.10;;;8.80;99.90;;;;;;5053444;28;20268;-68
2022/11/27 07:14:05;;;;;;;9.33;7.03;;;8.70;99.90;;;;;;5034842;28;20206;-68
2022/11/27 07:16:33;;;;;;;8.80;6.77;;;8.40;99.90;;;;;;5053238;28;20795;-68
2022/11/27 07:19:03;;;;;;;7.30;6.50;;;8.50;99.90;;;;;;5052355;28;20419;-68
2022/11/27 07:21:29;;;;;;;7.63;6.50;;;8.60;99.90;;;;;;5053165;28;20404;-68
2022/11/27 07:23:55;;;;;;;9.40;7.30;;;8.80;99.90;;;;;;5052319;28;20397;-68
2022/11/27 07:26:23;;;;;;;6.93;6.33;;;8.80;99.90;;;;;;5052782;28;20491;-68
2022/11/27 07:28:49;;;;;;;8.00;6.50;;;8.70;99.90;;;;;;5052001;28;20515;-71
2022/11/27 07:31:17;;;;;;;8.10;6.77;;;8.60;99.90;;;;;;5052833;28;20964;-68
2022/11/27 07:33:44;;;;;;;7.17;6.47;;;8.70;99.90;;;;;;5052798;28;20761;-68
2022/11/27 07:36:13;;;;;;;9.40;6.83;;;8.60;99.90;;;;;;5052116;28;20423;-68
2022/11/27 07:38:39;;;;;;;9.00;6.60;;;8.70;99.90;;;;;;5052660;28;20483;-68
2022/11/27 07:41:05;;;;;;;8.27;6.03;;;8.90;99.90;;;;;;5034346;28;20400;-68
2022/11/27 07:43:33;;;;;;;8.03;6.70;;;9.10;99.90;;;;;;5052669;28;20436;-68
2022/11/27 07:46:06;;;;;;;7.60;6.40;;;9.20;99.90;;;;;;5051841;28;20818;-69
2022/11/27 07:48:32;;;;;;;7.60;6.50;;;9.10;99.90;;;;;;5052325;28;20486;-68
2022/11/27 07:51:00;;;;;;;6.93;6.13;;;9.10;99.90;;;;;;5051736;28;20420;-68
2022/11/27 07:53:26;;;;;;;10.57;6.30;;;9.10;99.90;;;;;;5052498;28;20181;-68
2022/11/27 07:55:51;;;;;;;8.50;6.07;;;9.20;99.90;;;;;;5033865;28;20400;-69
2022/11/27 07:58:17;;;;;;;7.13;6.50;;;9.20;99.90;;;;;;5052509;28;20182;-68
2022/11/27 08:00:43;;;;;;;7.93;6.40;;;9.30;99.90;;;;;;5052475;28;20170;-68
2022/11/27 08:03:09;;;;;;;8.60;6.03;;;9.20;99.90;;;;;;5033937;28;20652;-68
2022/11/27 08:05:36;;;;;;;6.97;6.27;;;9.20;99.90;;;;;;5017223;28;20223;-68
2022/11/27 08:08:03;;;;;;;8.00;6.87;;;9.10;99.90;;;;;;5051628;28;20453;-68
2022/11/27 08:10:38;;;;;;;8.20;6.70;;;9.30;99.90;;;;;;5052368;28;20418;-68
2022/11/27 08:13:05;;;;;;;8.20;6.30;;;9.40;99.90;;;;;;5051784;28;20431;-68
2022/11/27 08:15:31;;;;;;;7.80;6.50;;;9.40;99.90;;;;;;5052322;28;20409;-69
2022/11/27 08:17:57;;;;;;;10.77;6.90;;;9.50;99.90;;;;;;5054006;28;20405;-69
2022/11/27 08:20:23;;;;;;;8.00;6.70;;;9.60;99.90;;;;;;5056342;28;20495;-68
2022/11/27 08:22:49;;;;;;;8.10;7.00;;;9.50;99.90;;;;;;5056316;28;20240;-68
2022/11/27 08:25:16;;;;;;;8.27;7.37;;;9.60;99.90;;;;;;5055580;28;20898;-68
2022/11/27 08:27:42;;;;;;;9.17;8.00;;;9.70;99.90;;;;;;5056361;28;20393;-68
2022/11/27 08:30:08;;;;;;;7.57;6.87;;;9.80;99.90;;;;;;5055548;28;20410;-68
2022/11/27 08:32:38;;;;;;;10.10;5.90;;;9.70;99.90;;;;;;5056150;28;20412;-68
2022/11/27 08:35:04;;;;;;;5.83;5.33;;;9.70;99.90;;;;;;5055557;28;20407;-68
2022/11/27 08:37:30;;;;;;;7.23;5.80;;;9.80;99.90;;;;;;5056110;28;20408;-68
2022/11/27 08:39:56;;;;;;;6.03;5.43;;;9.80;99.90;;;;;;5055419;28;20465;-69
2022/11/27 08:42:22;;;;;;;6.67;5.33;;;9.90;99.90;;;;;;5038168;28;20186;-68
2022/11/27 08:44:47;;;;;;;6.43;5.30;;;10.10;99.90;;;;;;5055989;28;20185;-68
2022/11/27 08:47:15;;;;;;;5.70;5.07;;;10.10;99.90;;;;;;5055302;28;20487;-68
2022/11/27 08:49:42;;;;;;;6.03;5.43;;;10.20;99.90;;;;;;5038041;28;20259;-69
2022/11/27 08:52:08;;;;;;;8.30;6.03;;;10.30;99.90;;;;;;5055190;28;20451;-68
2022/11/27 08:54:34;;;;;;;6.20;5.60;;;10.30;99.30;;;;;;5055730;28;20420;-68
2022/11/27 08:57:00;;;;;;;6.60;6.00;;;10.50;99.60;;;;;;5055122;28;20412;-68
2022/11/27 08:59:26;;;;;;;8.40;6.50;;;10.10;99.30;;;;;;5055657;28;20172;-68
2022/11/27 09:01:51;;;;;;;6.10;5.50;;;10.10;99.60;;;;;;5055526;28;20177;-68
2022/11/27 09:04:17;;;;;;;6.80;5.60;;;10.20;99.80;;;;;;5054954;28;20575;-68
2022/11/27 09:06:43;;;;;;;5.80;5.30;;;10.00;99.10;;;;;;5055367;28;20662;-68
2022/11/27 09:09:09;;;;;;;7.73;5.83;;;10.10;99.60;;;;;;5036613;28;20184;-69
2022/11/27 09:11:36;;;;;;;7.00;6.33;;;10.30;99.90;;;;;;5055054;28;20416;-68
2022/11/27 09:14:04;;;;;;;6.90;6.30;;;10.30;99.10;;;;;;5054589;28;20504;-68
2022/11/27 09:16:30;;;;;;;5.50;4.30;;;10.10;98.20;;;;;;5037563;28;20470;-68
2022/11/27 09:18:56;;;;;;;6.37;4.93;;;10.30;99.30;;;;;;5054752;28;20409;-69
2022/11/27 09:21:26;;;;;;;7.80;5.07;;;10.40;98.50;;;;;;5055299;28;20175;-68
2022/11/27 09:23:56;;;;;;;6.13;4.87;;;10.50;97.50;;;;;;5037413;28;20414;-68
2022/11/27 09:26:24;;;;;;;6.30;5.17;;;10.70;97.10;;;;;;5055250;28;20442;-68
2022/11/27 09:28:52;;;;;;;4.30;3.90;;;10.80;96.70;;;;;;5054119;28;20464;-68
2022/11/27 09:31:19;;;;;;;5.60;4.50;;;10.80;97.00;;;;;;5054403;28;20412;-68
2022/11/27 09:33:45;;;;;;;4.70;4.27;;;10.90;95.60;;;;;;5054765;28;20925;-68
2022/11/27 09:36:14;;;;;;;4.93;4.30;;;11.00;95.30;;;;;;5054353;28;20822;-68
2022/11/27 09:38:41;;;;;;;5.83;4.43;;;10.90;95.00;;;;;;5055156;28;20421;-69
2022/11/27 09:41:10;;;;;;;4.77;4.07;;;10.90;94.00;;;;;;5054517;28;20419;-68
2022/11/27 09:43:52;;;;;;;5.93;4.73;;;10.80;94.20;;;;;;5054787;28;20486;-68
2022/11/27 09:46:44;;;;;;;4.40;4.00;;;10.90;94.10;;;;;;5054153;28;20445;-68
2022/11/27 09:49:34;;;;;;;6.30;4.80;;;10.80;94.10;;;;;;5031946;28;20496;-68
2022/11/27 09:52:09;;;;;;;5.17;4.30;;;10.80;94.70;;;;;;5054147;28;20403;-69
2022/11/27 09:54:47;;;;;;;5.77;4.40;;;10.60;94.60;;;;;;5054795;28;20844;-68
2022/11/27 09:57:24;;;;;;;7.20;5.00;;;10.70;94.60;;;;;;5054014;28;20416;-68
2022/11/27 09:59:52;;;;;;;5.60;5.17;;;10.90;94.50;;;;;;5054599;28;20407;-68
2022/11/27 10:02:28;;;;;;;5.63;5.13;;;10.90;94.20;;;;;;5053580;28;21022;-68
2022/11/27 10:04:54;;;;;;;6.10;5.67;;;10.80;93.20;;;;;;5054582;28;20397;-68
2022/11/27 10:07:28;;;;;;;5.63;5.17;;;10.60;94.30;;;;;;5053531;28;20478;-68
2022/11/27 10:10:17;;;;;;;5.80;5.30;;;10.50;93.90;;;;;;5054263;28;20417;-68
2022/11/27 10:13:14;;;;;;;5.93;5.33;;;10.60;94.10;;;;;;5054135;28;20420;-68
2022/11/27 10:15:42;;;;;;;5.17;4.67;;;10.60;94.10;;;;;;5054298;28;20399;-68
2022/11/27 10:18:39;;;;;;;6.20;5.27;;;10.70;93.50;;;;;;5053674;28;20869;-68
2022/11/27 10:21:18;;;;;;;5.07;4.57;;;10.70;93.80;;;;;;5048667;28;20512;-68
2022/11/27 10:24:06;;;;;;;4.87;4.50;;;10.90;93.20;;;;;;5054155;28;20403;-68
2022/11/27 10:26:56;;;;;;;5.70;4.70;;;10.90;93.60;;;;;;5053791;28;20451;-68
2022/11/27 10:29:51;;;;;;;4.67;4.27;;;11.00;93.50;;;;;;5035681;28;20822;-68
2022/11/27 10:32:20;;;;;;;4.53;4.13;;;10.90;92.50;;;;;;5031838;28;20432;-68
2022/11/27 10:34:52;;;;;;;5.30;4.90;;;10.90;93.50;;;;;;5053812;28;20438;-68
2022/11/27 10:37:32;;;;;;;4.53;4.20;;;10.90;92.70;;;;;;5053250;28;20408;-68
2022/11/27 10:40:05;;;;;;;4.10;3.80;;;10.80;93.30;;;;;;5053306;28;20484;-68
2022/11/27 10:42:48;;;;;;;4.40;4.00;;;10.90;93.40;;;;;;5053254;28;20410;-68
2022/11/27 10:45:20;;;;;;;4.47;4.17;;;11.00;93.10;;;;;;5053350;28;20795;-69
2022/11/27 10:47:47;;;;;;;4.80;4.40;;;11.10;93.30;;;;;;5053670;28;20518;-68
2022/11/27 10:50:15;;;;;;;4.90;4.40;;;11.20;93.20;;;;;;5052950;28;20422;-68
2022/11/27 10:53:01;;;;;;;4.23;3.87;;;11.30;92.40;;;;;;5035590;28;20415;-68
2022/11/27 10:56:09;;;;;;;4.67;4.27;;;11.40;92.60;;;;;;5035834;28;20433;-68
2022/11/27 10:58:46;;;;;;;4.47;4.07;;;11.50;91.90;;;;;;5053746;28;20427;-68
2022/11/27 11:01:21;;;;;;;4.33;3.97;;;11.40;91.50;;;;;;5069426;28;21096;-68
2022/11/27 11:03:47;;;;;;;4.77;4.37;;;11.30;91.90;;;;;;5069962;28;20427;-68
2022/11/27 11:06:21;;;;;;;5.23;4.73;;;11.30;92.00;;;;;;5069255;28;20413;-68
2022/11/27 11:08:48;;;;;;;4.97;4.57;;;11.30;92.00;;;;;;5069953;28;20402;-68
2022/11/27 11:11:24;;;;;;;4.70;4.40;;;11.50;92.30;;;;;;5069171;28;20411;-68
2022/11/27 11:13:50;;;;;;;4.60;4.20;;;11.70;92.10;;;;;;5069906;28;20413;-67
2022/11/27 11:16:19;;;;;;;4.83;4.33;;;11.70;91.70;;;;;;5069049;28;20410;-68
2022/11/27 11:18:51;;;;;;;4.47;4.10;;;11.80;91.80;;;;;;5069737;28;20465;-68
2022/11/27 11:21:39;;;;;;;4.50;4.20;;;11.90;91.40;;;;;;5068987;28;20442;-68
2022/11/27 11:24:36;;;;;;;4.43;4.03;;;11.90;91.30;;;;;;5069009;28;20738;-68
2022/11/27 11:27:14;;;;;;;4.60;4.30;;;12.00;90.40;;;;;;5065083;28;20448;-67
2022/11/27 11:29:45;;;;;;;4.30;3.90;;;11.70;90.70;;;;;;5069562;28;20427;-67
2022/11/27 11:32:20;;;;;;;5.13;4.03;;;11.70;90.40;;;;;;5068846;28;20397;-68
2022/11/27 11:34:47;;;;;;;3.90;3.60;;;11.60;90.80;;;;;;5069368;28;20845;-68
2022/11/27 11:37:33;;;;;;;4.03;3.73;;;11.70;90.80;;;;;;5068617;28;20418;-68
2022/11/27 11:40:03;;;;;;;7.10;5.03;;;11.50;90.20;;;;;;5069270;28;20450;-67
2022/11/27 11:42:32;;;;;;;4.63;4.23;;;11.60;90.40;;;;;;5069314;28;20411;-67
2022/11/27 11:45:12;;;;;;;6.37;4.80;;;11.50;90.20;;;;;;5068883;28;20814;-68
2022/11/27 11:47:54;;;;;;;3.90;3.60;;;11.40;90.30;;;;;;5069146;28;20402;-68
2022/11/27 11:50:40;;;;;;;4.20;3.90;;;11.50;90.90;;;;;;5068484;28;20402;-68
2022/11/27 11:53:17;;;;;;;4.30;4.00;;;11.60;90.80;;;;;;5068109;28;20737;-69
2022/11/27 11:56:20;;;;;;;3.67;3.37;;;11.70;90.30;;;;;;5069100;28;20398;-68
2022/11/27 11:59:13;;;;;;;4.10;3.70;;;11.70;89.50;;;;;;5068711;28;21004;-67
2022/11/27 12:02:05;;;;;;;3.70;3.50;;;11.70;90.00;;;;;;5068456;28;20879;-68
2022/11/27 12:05:08;;;;;;;4.33;3.00;;;11.90;90.00;;;;;;5057538;28;20431;-68
2022/11/27 12:08:19;;;;;;;4.30;3.83;;;12.00;88.60;;;;;;5067414;28;20396;-68
2022/11/27 12:11:18;;;;;;;4.43;4.03;;;11.90;86.60;;;;;;5052096;28;20530;-67
2022/11/27 12:14:13;;;;;;;3.87;3.67;;;11.70;87.90;;;;;;5054259;28;20402;-68
2022/11/27 12:17:02;;;;;;;4.33;3.93;;;11.80;88.10;;;;;;5055260;28;20415;-68
2022/11/27 12:19:45;;;;;;;4.00;3.80;;;11.80;87.70;;;;;;5054506;28;20496;-68
2022/11/27 12:22:36;;;;;;;4.20;3.90;;;11.90;87.70;;;;;;5054542;28;20420;-68
2022/11/27 12:25:02;;;;;;;3.87;3.57;;;12.10;89.10;;;;;;5055134;28;20408;-68
2022/11/27 12:27:52;;;;;;;4.60;4.30;;;12.10;88.60;;;;;;5054484;28;20984;-68
2022/11/27 12:30:21;;;;;;;3.77;3.57;;;12.10;88.30;;;;;;5054516;28;20173;-68
2022/11/27 12:33:16;;;;;;;5.30;4.30;;;12.20;87.50;;;;;;5054908;28;20451;-68
2022/11/27 12:35:50;;;;;;;4.20;4.00;;;12.30;86.70;;;;;;5049674;28;20528;-68
2022/11/27 12:38:40;;;;;;;4.07;3.80;;;12.30;86.60;;;;;;5054174;28;20955;-68
2022/11/27 12:41:28;;;;;;;4.53;4.13;;;12.30;86.50;;;;;;5054799;28;20556;-67
2022/11/27 12:43:55;;;;;;;5.00;4.60;;;12.50;87.30;;;;;;5054829;28;20420;-69
2022/11/27 12:46:33;;;;;;;5.30;5.00;;;12.50;85.60;;;;;;5054051;28;20407;-68
2022/11/27 12:49:14;;;;;;;4.70;4.40;;;12.60;85.60;;;;;;5054231;28;20913;-67
2022/11/27 12:51:46;;;;;;;3.80;3.60;;;12.50;85.60;;;;;;5054462;28;20489;-68
2022/11/27 12:54:21;;;;;;;5.30;3.80;;;12.50;85.30;;;;;;5053980;28;20464;-68
2022/11/27 12:56:53;;;;;;;4.07;3.77;;;12.30;84.80;;;;;;5053260;28;20425;-68
2022/11/27 12:59:32;;;;;;;4.10;3.80;;;12.20;84.20;;;;;;5052291;28;20928;-68
2022/11/27 13:02:00;;;;;;;4.97;4.57;;;12.30;84.00;;;;;;5054555;28;20404;-68
2022/11/27 13:04:48;;;;;;;3.77;3.50;;;12.20;84.60;;;;;;5053776;28;20420;-68
2022/11/27 13:07:46;;;;;;;3.70;3.50;;;12.20;84.00;;;;;;5053796;28;20494;-68
2022/11/27 13:10:21;;;;;;;3.90;3.67;;;12.20;86.20;;;;;;5049388;28;20443;-68
2022/11/27 13:12:55;;;;;;;3.73;3.43;;;12.20;86.00;;;;;;5054071;28;20488;-68
2022/11/27 13:15:38;;;;;;;3.97;3.57;;;12.20;85.70;;;;;;5053177;28;20920;-68
2022/11/27 13:18:31;;;;;;;3.63;3.33;;;12.30;86.00;;;;;;5054317;28;20408;-68